Dog Valley, California Weather observations

Data are for 10 minute period ending at time listed.
 Day   Time    Ave.   Ave.  Ave.  Vector   Max.   Total    Solar   
  of    of     Air    Rel.  Wind   Wind    Wind  Precip.   Rad.    
Year   Day     Temp.  Hum.  Speed  Dir.    Gust                    
2014   (PST)    F      %     mph   deg.    mph     in.     W/m2    
------------------------------------------------------------------- 
 238   14:00   79.0    20    2.0    97     11.0    3.08     877  
 238   15:00   79.0    20    2.0   280      9.0    3.08     773  
 238   16:00   77.0    19    3.0    30     12.0    3.08     324  
 238   17:00   75.0    19    2.0    48     10.0    3.08     250  
 238   18:00   70.0    21    1.0    28      8.0    3.08      91  
 238   19:00   57.0    33    1.0   278      3.0    3.08       8  
 238   20:00   52.0    38    0.0   268      3.0    3.08       0  
 238   21:00   49.0    47    0.0   268      1.0    3.08       0  
 238   22:00   47.0    53    0.0   268      0.0    3.08       0  
 238   23:00   45.0    56    0.0   268      0.0    3.08       0  
 239    0:00   44.0    56    0.0   295      1.0    3.08       0  
 239    1:00   43.0    59    0.0   320      1.0    3.08       0  
 239    2:00   43.0    60    0.0   320      0.0    3.08       0  
 239    3:00   42.0    64    0.0   328      0.0    3.08       0  
 239    4:00   42.0    62    0.0   167      1.0    3.08       0  
 239    5:00   43.0    65    0.0   144      1.0    3.08       0  
 239    6:00   42.0    62    0.0   147      0.0    3.08       3  
 239    7:00   47.0    65    0.0   123      4.0    3.08      37  
 239    8:00   64.0    34    1.0   182      5.0    3.08      55  
 239    9:00   75.0    21    2.0   167      5.0    3.08     531  
 239   10:00   79.0    19    2.0   126      6.0    3.08     708  
 239   11:00   82.0    19    2.0   126      6.0    3.08     833  
 239   12:00   82.0    17    3.0   104      7.0    3.08     904  
 239   13:00   85.0    16    3.0   104     10.0    3.08     917  

Return to Dog Valley, California graphs page.


Western Regional Climate Center,wrcc@dri.edu